createdAt,value
2022-12-14T00:01:48.931Z,34.30
2022-12-14T00:11:46.783Z,35.50
2022-12-14T00:21:46.057Z,36.00
2022-12-14T00:31:48.831Z,38.30
2022-12-14T00:41:46.433Z,37.80
2022-12-14T00:51:46.470Z,37.70
2022-12-14T01:01:46.879Z,37.80
2022-12-14T01:11:46.915Z,37.80
2022-12-14T01:21:47.165Z,40.70
2022-12-14T01:31:48.684Z,32.40
2022-12-14T01:41:48.611Z,30.60
2022-12-14T01:51:47.642Z,36.90
2022-12-14T02:01:48.349Z,31.00
2022-12-14T02:11:47.978Z,32.90
2022-12-14T02:21:48.267Z,37.00
2022-12-14T02:31:48.951Z,29.40
2022-12-14T02:41:48.662Z,30.40
2022-12-14T02:51:48.706Z,30.00
2022-12-14T03:01:49.190Z,32.30
2022-12-14T03:11:49.126Z,34.00
2022-12-14T03:21:49.378Z,29.50
2022-12-14T03:31:49.727Z,34.90
2022-12-14T03:41:49.861Z,34.10
2022-12-14T03:51:49.904Z,37.30
2022-12-14T04:01:50.302Z,34.60
2022-12-14T04:11:50.229Z,32.30
2022-12-14T04:21:50.507Z,32.70
2022-12-14T04:31:50.800Z,33.60
2022-12-14T04:41:50.862Z,34.70
2022-12-14T04:51:51.089Z,32.80
2022-12-14T05:01:51.454Z,27.30
2022-12-14T05:11:54.343Z,27.80
2022-12-14T05:21:51.908Z,32.20
2022-12-14T05:31:51.942Z,38.90
2022-12-14T05:41:53.211Z,41.60
2022-12-14T05:51:52.439Z,40.00
2022-12-14T06:01:52.808Z,42.30
2022-12-14T06:11:52.843Z,38.40
2022-12-14T06:21:56.194Z,33.00
2022-12-14T06:31:53.218Z,41.70
2022-12-14T06:41:53.493Z,36.00
2022-12-14T06:51:53.533Z,40.20
2022-12-14T07:01:53.964Z,44.60
2022-12-14T07:11:53.950Z,43.40
2022-12-14T07:21:54.024Z,40.40
2022-12-14T07:31:54.061Z,60.30
2022-12-14T07:41:54.399Z,37.70
2022-12-14T07:51:54.444Z,39.40
2022-12-14T08:01:56.373Z,46.40
2022-12-14T08:11:54.849Z,44.60
2022-12-14T08:21:55.137Z,44.30
2022-12-14T08:31:55.236Z,45.10
2022-12-14T08:41:55.320Z,49.40
2022-12-14T08:51:55.558Z,17.70
2022-12-14T09:01:56.050Z,8.70
2022-12-14T09:11:55.998Z,7.30
2022-12-14T09:21:56.301Z,7.70
2022-12-14T09:31:56.402Z,13.90
2022-12-14T09:42:00.785Z,10.50
2022-12-14T09:51:56.668Z,22.20
2022-12-14T10:11:58.060Z,37.50
2022-12-14T10:21:57.405Z,37.50
2022-12-14T10:31:57.508Z,37.70
2022-12-14T10:41:57.641Z,39.30
2022-12-14T10:51:57.669Z,44.60
2022-12-14T11:01:58.177Z,39.50
2022-12-14T11:11:58.013Z,45.30
2022-12-14T11:21:58.175Z,42.30
2022-12-14T11:31:58.212Z,40.10
2022-12-14T11:41:58.538Z,41.60
2022-12-14T11:51:58.566Z,37.90
2022-12-14T12:01:59.007Z,44.90
2022-12-14T12:11:59.068Z,37.90
2022-12-14T12:21:59.400Z,38.60
2022-12-14T12:32:00.087Z,33.60
2022-12-14T12:42:03.588Z,36.00
2022-12-14T12:52:00.613Z,69.80
2022-12-14T13:02:00.483Z,43.10
2022-12-14T13:11:59.764Z,65.00
2022-12-14T13:22:04.983Z,41.30
2022-12-14T13:32:01.172Z,50.00
2022-12-14T13:42:01.479Z,48.40
2022-12-14T13:52:00.507Z,48.20
2022-12-14T14:02:00.915Z,37.70
2022-12-14T14:12:00.970Z,45.00
2022-12-14T14:22:22.221Z,47.20
2022-12-14T14:32:02.478Z,43.30
2022-12-14T14:42:01.593Z,44.50
2022-12-14T14:52:03.646Z,47.80
2022-12-14T15:02:03.186Z,49.80
2022-12-14T15:12:01.920Z,44.70
2022-12-14T15:22:01.980Z,53.80
2022-12-14T15:32:02.309Z,71.50
2022-12-14T15:42:02.367Z,56.70
2022-12-14T15:52:02.662Z,50.20
2022-12-14T16:02:07.064Z,60.60
2022-12-14T16:12:03.771Z,82.60
2022-12-14T16:22:03.110Z,91.50
2022-12-14T16:32:03.214Z,83.00
2022-12-14T16:42:03.414Z,91.90
2022-12-14T16:52:08.041Z,125.20
2022-12-14T17:02:05.043Z,91.10
2022-12-14T17:12:04.056Z,77.80
2022-12-14T17:22:04.115Z,56.00
2022-12-14T17:32:04.522Z,43.00
2022-12-14T17:42:04.593Z,41.60
2022-12-14T17:52:05.057Z,39.40
2022-12-14T18:02:05.273Z,57.30
2022-12-14T18:22:06.265Z,39.10
2022-12-14T18:32:05.571Z,37.40
2022-12-14T18:42:08.888Z,37.00
2022-12-14T18:52:05.923Z,43.20
2022-12-14T19:02:06.340Z,38.40
2022-12-14T19:12:06.417Z,46.20
2022-12-14T19:22:06.719Z,43.90
2022-12-14T19:32:06.811Z,35.70
2022-12-14T19:42:07.022Z,47.20
2022-12-14T19:52:07.035Z,46.80
2022-12-14T20:02:08.872Z,51.40
2022-12-14T20:12:07.417Z,69.90
2022-12-14T20:22:07.632Z,78.80
2022-12-14T20:32:07.840Z,82.60
2022-12-14T20:42:07.832Z,77.00
2022-12-14T20:52:07.896Z,69.90
2022-12-14T21:02:08.382Z,68.40
2022-12-14T21:12:09.092Z,65.30
2022-12-14T21:22:08.463Z,63.70
2022-12-14T21:32:08.748Z,68.00
2022-12-14T21:42:08.840Z,48.60
2022-12-14T21:52:09.089Z,50.40
2022-12-14T22:02:09.519Z,45.40
2022-12-14T22:12:09.673Z,42.30
2022-12-14T22:22:09.780Z,41.20
2022-12-14T22:32:09.870Z,60.00
2022-12-14T22:42:10.035Z,58.40
2022-12-14T22:52:10.064Z,60.70
2022-12-14T23:02:10.546Z,58.20
2022-12-14T23:12:11.723Z,59.00
2022-12-14T23:22:10.794Z,34.20
2022-12-14T23:32:10.848Z,40.50
2022-12-14T23:42:11.152Z,30.10
2022-12-14T23:52:11.195Z,31.40
